sensor_id;sensor_type;location;lat;lon;timestamp;P1;durP1;ratioP1;P2;durP2;ratioP2
36443;SDS011;24692;45.642;13.806;2022-10-23T00:01:20;15.13;;;9.40;;
36443;SDS011;24692;45.642;13.806;2022-10-23T00:03:55;20.67;;;9.60;;
36443;SDS011;24692;45.642;13.806;2022-10-23T00:06:22;21.80;;;9.97;;
36443;SDS011;24692;45.642;13.806;2022-10-23T00:08:48;20.17;;;10.03;;
36443;SDS011;24692;45.642;13.806;2022-10-23T00:11:16;14.40;;;9.73;;
36443;SDS011;24692;45.642;13.806;2022-10-23T00:13:45;15.40;;;9.60;;
36443;SDS011;24692;45.642;13.806;2022-10-23T00:16:10;15.03;;;9.57;;
36443;SDS011;24692;45.642;13.806;2022-10-23T00:18:37;13.10;;;9.63;;
36443;SDS011;24692;45.642;13.806;2022-10-23T00:21:03;20.33;;;10.20;;
36443;SDS011;24692;45.642;13.806;2022-10-23T00:23:30;14.83;;;10.40;;
36443;SDS011;24692;45.642;13.806;2022-10-23T00:25:56;14.47;;;10.07;;
36443;SDS011;24692;45.642;13.806;2022-10-23T00:28:21;13.17;;;8.97;;
36443;SDS011;24692;45.642;13.806;2022-10-23T00:30:47;16.77;;;9.73;;
36443;SDS011;24692;45.642;13.806;2022-10-23T00:33:13;16.30;;;10.30;;
36443;SDS011;24692;45.642;13.806;2022-10-23T00:35:39;21.37;;;10.37;;
36443;SDS011;24692;45.642;13.806;2022-10-23T00:38:05;13.37;;;10.00;;
36443;SDS011;24692;45.642;13.806;2022-10-23T00:40:31;16.90;;;9.90;;
36443;SDS011;24692;45.642;13.806;2022-10-23T00:42:57;17.63;;;10.03;;
36443;SDS011;24692;45.642;13.806;2022-10-23T00:45:26;19.33;;;10.30;;
36443;SDS011;24692;45.642;13.806;2022-10-23T00:47:57;13.73;;;9.70;;
36443;SDS011;24692;45.642;13.806;2022-10-23T00:50:27;22.17;;;10.57;;
36443;SDS011;24692;45.642;13.806;2022-10-23T00:52:55;14.30;;;10.03;;
36443;SDS011;24692;45.642;13.806;2022-10-23T00:55:23;15.77;;;10.50;;
36443;SDS011;24692;45.642;13.806;2022-10-23T00:57:51;18.27;;;9.53;;
36443;SDS011;24692;45.642;13.806;2022-10-23T01:00:24;17.80;;;10.33;;
36443;SDS011;24692;45.642;13.806;2022-10-23T01:02:53;14.13;;;10.10;;
36443;SDS011;24692;45.642;13.806;2022-10-23T01:05:21;14.00;;;9.93;;
36443;SDS011;24692;45.642;13.806;2022-10-23T01:08:01;14.60;;;9.67;;
36443;SDS011;24692;45.642;13.806;2022-10-23T01:10:36;18.63;;;10.47;;
36443;SDS011;24692;45.642;13.806;2022-10-23T01:13:13;17.07;;;10.07;;
36443;SDS011;24692;45.642;13.806;2022-10-23T01:16:05;14.57;;;9.80;;
36443;SDS011;24692;45.642;13.806;2022-10-23T01:21:54;12.13;;;9.87;;
36443;SDS011;24692;45.642;13.806;2022-10-23T01:27:38;13.83;;;9.83;;
36443;SDS011;24692;45.642;13.806;2022-10-23T01:30:07;13.13;;;9.93;;
36443;SDS011;24692;45.642;13.806;2022-10-23T01:32:50;14.87;;;9.37;;
36443;SDS011;24692;45.642;13.806;2022-10-23T01:35:51;17.67;;;9.73;;
36443;SDS011;24692;45.642;13.806;2022-10-23T01:38:15;13.57;;;9.20;;
36443;SDS011;24692;45.642;13.806;2022-10-23T01:41:00;15.63;;;10.03;;
36443;SDS011;24692;45.642;13.806;2022-10-23T01:43:32;20.77;;;9.97;;
36443;SDS011;24692;45.642;13.806;2022-10-23T01:46:04;15.63;;;10.57;;
36443;SDS011;24692;45.642;13.806;2022-10-23T01:48:34;14.83;;;9.57;;
36443;SDS011;24692;45.642;13.806;2022-10-23T01:51:04;17.30;;;9.53;;
36443;SDS011;24692;45.642;13.806;2022-10-23T01:53:35;15.33;;;10.07;;
36443;SDS011;24692;45.642;13.806;2022-10-23T01:56:06;12.73;;;9.07;;
36443;SDS011;24692;45.642;13.806;2022-10-23T01:58:35;15.37;;;9.90;;
36443;SDS011;24692;45.642;13.806;2022-10-23T02:01:04;14.70;;;10.00;;
36443;SDS011;24692;45.642;13.806;2022-10-23T02:03:31;15.90;;;10.50;;
36443;SDS011;24692;45.642;13.806;2022-10-23T02:05:59;15.63;;;9.73;;
36443;SDS011;24692;45.642;13.806;2022-10-23T02:08:25;15.00;;;9.43;;
36443;SDS011;24692;45.642;13.806;2022-10-23T02:10:53;12.33;;;9.83;;
36443;SDS011;24692;45.642;13.806;2022-10-23T02:16:02;15.67;;;10.00;;
36443;SDS011;24692;45.642;13.806;2022-10-23T02:21:10;16.10;;;10.53;;
36443;SDS011;24692;45.642;13.806;2022-10-23T02:26:23;18.07;;;11.37;;
36443;SDS011;24692;45.642;13.806;2022-10-23T02:28:56;19.90;;;12.07;;
36443;SDS011;24692;45.642;13.806;2022-10-23T02:31:27;21.70;;;13.20;;
36443;SDS011;24692;45.642;13.806;2022-10-23T02:33:53;19.40;;;12.37;;
36443;SDS011;24692;45.642;13.806;2022-10-23T02:36:18;19.33;;;12.97;;
36443;SDS011;24692;45.642;13.806;2022-10-23T02:38:44;20.83;;;14.20;;
36443;SDS011;24692;45.642;13.806;2022-10-23T03:00:12;22.03;;;12.40;;
36443;SDS011;24692;45.642;13.806;2022-10-23T03:02:42;17.13;;;12.53;;
36443;SDS011;24692;45.642;13.806;2022-10-23T03:05:38;23.53;;;14.63;;
36443;SDS011;24692;45.642;13.806;2022-10-23T03:08:08;20.57;;;13.70;;
36443;SDS011;24692;45.642;13.806;2022-10-23T03:10:35;23.80;;;15.03;;
36443;SDS011;24692;45.642;13.806;2022-10-23T03:13:00;25.33;;;15.03;;
36443;SDS011;24692;45.642;13.806;2022-10-23T03:15:26;25.87;;;14.77;;
36443;SDS011;24692;45.642;13.806;2022-10-23T03:17:52;25.80;;;14.23;;
36443;SDS011;24692;45.642;13.806;2022-10-23T03:20:17;22.27;;;14.00;;
36443;SDS011;24692;45.642;13.806;2022-10-23T03:22:43;22.40;;;14.13;;
36443;SDS011;24692;45.642;13.806;2022-10-23T03:25:09;28.40;;;14.57;;
36443;SDS011;24692;45.642;13.806;2022-10-23T03:27:35;19.33;;;12.77;;
36443;SDS011;24692;45.642;13.806;2022-10-23T03:30:01;19.57;;;14.33;;
36443;SDS011;24692;45.642;13.806;2022-10-23T03:32:28;24.00;;;14.60;;
36443;SDS011;24692;45.642;13.806;2022-10-23T03:34:53;28.97;;;15.30;;
36443;SDS011;24692;45.642;13.806;2022-10-23T03:37:19;27.23;;;14.47;;
36443;SDS011;24692;45.642;13.806;2022-10-23T03:39:45;25.00;;;15.10;;
36443;SDS011;24692;45.642;13.806;2022-10-23T03:42:10;30.67;;;18.60;;
36443;SDS011;24692;45.642;13.806;2022-10-23T03:44:36;23.23;;;14.30;;
36443;SDS011;24692;45.642;13.806;2022-10-23T03:47:02;26.10;;;15.23;;
36443;SDS011;24692;45.642;13.806;2022-10-23T03:49:28;26.37;;;14.07;;
36443;SDS011;24692;45.642;13.806;2022-10-23T03:51:54;23.73;;;14.63;;
36443;SDS011;24692;45.642;13.806;2022-10-23T03:54:23;27.43;;;15.80;;
36443;SDS011;24692;45.642;13.806;2022-10-23T03:56:50;26.60;;;14.37;;
36443;SDS011;24692;45.642;13.806;2022-10-23T03:59:16;26.13;;;14.70;;
36443;SDS011;24692;45.642;13.806;2022-10-23T04:01:42;24.90;;;14.37;;
36443;SDS011;24692;45.642;13.806;2022-10-23T04:04:08;26.40;;;15.33;;
36443;SDS011;24692;45.642;13.806;2022-10-23T04:06:34;24.73;;;14.80;;
36443;SDS011;24692;45.642;13.806;2022-10-23T04:09:00;26.70;;;14.40;;
36443;SDS011;24692;45.642;13.806;2022-10-23T04:11:25;23.33;;;14.43;;
36443;SDS011;24692;45.642;13.806;2022-10-23T04:13:51;27.10;;;15.47;;
36443;SDS011;24692;45.642;13.806;2022-10-23T04:16:17;31.17;;;17.07;;
36443;SDS011;24692;45.642;13.806;2022-10-23T04:18:42;26.50;;;16.07;;
36443;SDS011;24692;45.642;13.806;2022-10-23T04:21:08;30.27;;;15.73;;
36443;SDS011;24692;45.642;13.806;2022-10-23T04:23:34;27.00;;;15.33;;
36443;SDS011;24692;45.642;13.806;2022-10-23T04:26:00;26.97;;;15.37;;
36443;SDS011;24692;45.642;13.806;2022-10-23T04:28:26;23.70;;;14.63;;
36443;SDS011;24692;45.642;13.806;2022-10-23T04:30:52;25.33;;;15.37;;
36443;SDS011;24692;45.642;13.806;2022-10-23T04:33:18;30.53;;;14.83;;
36443;SDS011;24692;45.642;13.806;2022-10-23T04:35:43;26.93;;;15.13;;
36443;SDS011;24692;45.642;13.806;2022-10-23T04:38:09;31.63;;;15.30;;
36443;SDS011;24692;45.642;13.806;2022-10-23T04:40:35;27.17;;;15.47;;
36443;SDS011;24692;45.642;13.806;2022-10-23T04:43:01;26.93;;;15.57;;
36443;SDS011;24692;45.642;13.806;2022-10-23T04:45:27;24.73;;;15.43;;
36443;SDS011;24692;45.642;13.806;2022-10-23T04:47:52;27.40;;;15.70;;
36443;SDS011;24692;45.642;13.806;2022-10-23T04:50:18;24.80;;;15.83;;
36443;SDS011;24692;45.642;13.806;2022-10-23T04:52:44;28.53;;;16.13;;
36443;SDS011;24692;45.642;13.806;2022-10-23T04:55:10;27.10;;;15.33;;
36443;SDS011;24692;45.642;13.806;2022-10-23T04:57:36;27.63;;;15.23;;
36443;SDS011;24692;45.642;13.806;2022-10-23T05:00:03;29.60;;;15.97;;
36443;SDS011;24692;45.642;13.806;2022-10-23T05:02:30;22.97;;;15.53;;
36443;SDS011;24692;45.642;13.806;2022-10-23T05:04:56;26.73;;;14.87;;
36443;SDS011;24692;45.642;13.806;2022-10-23T05:07:22;25.90;;;15.23;;
36443;SDS011;24692;45.642;13.806;2022-10-23T05:09:47;27.87;;;15.47;;
36443;SDS011;24692;45.642;13.806;2022-10-23T05:12:13;28.70;;;15.57;;
36443;SDS011;24692;45.642;13.806;2022-10-23T05:14:38;31.90;;;15.67;;
36443;SDS011;24692;45.642;13.806;2022-10-23T05:17:06;27.00;;;14.93;;
36443;SDS011;24692;45.642;13.806;2022-10-23T05:19:38;29.73;;;14.33;;
36443;SDS011;24692;45.642;13.806;2022-10-23T05:22:07;25.20;;;14.47;;
36443;SDS011;24692;45.642;13.806;2022-10-23T05:24:34;29.87;;;14.80;;
36443;SDS011;24692;45.642;13.806;2022-10-23T05:27:00;26.63;;;14.30;;
36443;SDS011;24692;45.642;13.806;2022-10-23T05:29:25;28.00;;;14.73;;
36443;SDS011;24692;45.642;13.806;2022-10-23T05:31:53;25.93;;;14.93;;
36443;SDS011;24692;45.642;13.806;2022-10-23T05:34:25;26.83;;;15.03;;
36443;SDS011;24692;45.642;13.806;2022-10-23T05:36:53;28.67;;;15.07;;
36443;SDS011;24692;45.642;13.806;2022-10-23T05:39:18;28.23;;;15.33;;
36443;SDS011;24692;45.642;13.806;2022-10-23T05:41:45;29.83;;;16.10;;
36443;SDS011;24692;45.642;13.806;2022-10-23T05:44:10;34.47;;;16.40;;
36443;SDS011;24692;45.642;13.806;2022-10-23T05:46:42;32.30;;;15.20;;
36443;SDS011;24692;45.642;13.806;2022-10-23T05:49:08;29.80;;;15.20;;
36443;SDS011;24692;45.642;13.806;2022-10-23T05:51:38;29.03;;;15.87;;
36443;SDS011;24692;45.642;13.806;2022-10-23T05:54:05;26.23;;;15.67;;
36443;SDS011;24692;45.642;13.806;2022-10-23T05:56:35;26.80;;;16.13;;
36443;SDS011;24692;45.642;13.806;2022-10-23T05:59:02;30.57;;;17.30;;
36443;SDS011;24692;45.642;13.806;2022-10-23T06:01:28;27.17;;;15.50;;
36443;SDS011;24692;45.642;13.806;2022-10-23T06:03:54;31.00;;;16.38;;
36443;SDS011;24692;45.642;13.806;2022-10-23T06:06:20;24.50;;;15.60;;
36443;SDS011;24692;45.642;13.806;2022-10-23T06:08:46;29.27;;;16.30;;
36443;SDS011;24692;45.642;13.806;2022-10-23T06:11:12;29.47;;;16.40;;
36443;SDS011;24692;45.642;13.806;2022-10-23T06:13:41;28.83;;;15.80;;
36443;SDS011;24692;45.642;13.806;2022-10-23T06:16:15;29.37;;;15.93;;
36443;SDS011;24692;45.642;13.806;2022-10-23T06:18:43;28.37;;;16.17;;
36443;SDS011;24692;45.642;13.806;2022-10-23T06:21:10;30.20;;;17.23;;
36443;SDS011;24692;45.642;13.806;2022-10-23T06:23:37;25.27;;;16.83;;
36443;SDS011;24692;45.642;13.806;2022-10-23T06:26:04;29.87;;;16.20;;
36443;SDS011;24692;45.642;13.806;2022-10-23T06:28:31;27.07;;;15.97;;
36443;SDS011;24692;45.642;13.806;2022-10-23T06:30:57;28.52;;;16.63;;
36443;SDS011;24692;45.642;13.806;2022-10-23T06:33:23;35.93;;;17.40;;
36443;SDS011;24692;45.642;13.806;2022-10-23T06:35:48;29.47;;;17.13;;
36443;SDS011;24692;45.642;13.806;2022-10-23T06:38:14;26.87;;;16.23;;
36443;SDS011;24692;45.642;13.806;2022-10-23T06:40:40;27.97;;;15.93;;
36443;SDS011;24692;45.642;13.806;2022-10-23T06:43:05;32.57;;;17.33;;
36443;SDS011;24692;45.642;13.806;2022-10-23T06:45:32;28.00;;;16.53;;
36443;SDS011;24692;45.642;13.806;2022-10-23T06:47:58;32.13;;;17.27;;
36443;SDS011;24692;45.642;13.806;2022-10-23T06:50:25;28.67;;;17.20;;
36443;SDS011;24692;45.642;13.806;2022-10-23T06:52:51;28.57;;;16.07;;
36443;SDS011;24692;45.642;13.806;2022-10-23T06:55:18;26.57;;;16.20;;
36443;SDS011;24692;45.642;13.806;2022-10-23T06:57:43;29.57;;;16.43;;
36443;SDS011;24692;45.642;13.806;2022-10-23T07:00:09;34.57;;;16.00;;
36443;SDS011;24692;45.642;13.806;2022-10-23T07:02:36;33.20;;;17.00;;
36443;SDS011;24692;45.642;13.806;2022-10-23T07:05:02;24.23;;;15.67;;
36443;SDS011;24692;45.642;13.806;2022-10-23T07:07:28;29.43;;;16.43;;
36443;SDS011;24692;45.642;13.806;2022-10-23T07:09:55;31.53;;;16.17;;
36443;SDS011;24692;45.642;13.806;2022-10-23T07:12:21;27.10;;;15.57;;
36443;SDS011;24692;45.642;13.806;2022-10-23T07:14:46;26.23;;;14.48;;
36443;SDS011;24692;45.642;13.806;2022-10-23T07:17:12;26.03;;;14.57;;
36443;SDS011;24692;45.642;13.806;2022-10-23T07:19:38;34.47;;;15.20;;
36443;SDS011;24692;45.642;13.806;2022-10-23T07:22:03;28.00;;;14.90;;
36443;SDS011;24692;45.642;13.806;2022-10-23T07:24:29;26.17;;;14.40;;
36443;SDS011;24692;45.642;13.806;2022-10-23T07:26:56;27.03;;;14.70;;
36443;SDS011;24692;45.642;13.806;2022-10-23T07:29:22;29.27;;;14.60;;
36443;SDS011;24692;45.642;13.806;2022-10-23T07:31:48;23.47;;;13.87;;
36443;SDS011;24692;45.642;13.806;2022-10-23T07:34:13;22.40;;;13.57;;
36443;SDS011;24692;45.642;13.806;2022-10-23T07:36:39;28.90;;;13.33;;
36443;SDS011;24692;45.642;13.806;2022-10-23T07:39:05;22.83;;;13.73;;
36443;SDS011;24692;45.642;13.806;2022-10-23T07:41:31;25.13;;;12.87;;
36443;SDS011;24692;45.642;13.806;2022-10-23T07:43:57;25.93;;;13.23;;
36443;SDS011;24692;45.642;13.806;2022-10-23T07:46:23;28.13;;;14.10;;
36443;SDS011;24692;45.642;13.806;2022-10-23T07:48:48;23.83;;;14.40;;
36443;SDS011;24692;45.642;13.806;2022-10-23T07:51:14;29.40;;;13.73;;
36443;SDS011;24692;45.642;13.806;2022-10-23T07:53:40;29.33;;;13.23;;
36443;SDS011;24692;45.642;13.806;2022-10-23T07:56:14;27.23;;;13.43;;
36443;SDS011;24692;45.642;13.806;2022-10-23T07:58:41;25.70;;;13.60;;
36443;SDS011;24692;45.642;13.806;2022-10-23T08:01:14;25.57;;;13.17;;
36443;SDS011;24692;45.642;13.806;2022-10-23T08:03:47;29.47;;;13.63;;
36443;SDS011;24692;45.642;13.806;2022-10-23T08:06:13;28.48;;;13.98;;
36443;SDS011;24692;45.642;13.806;2022-10-23T08:08:39;21.37;;;13.53;;
36443;SDS011;24692;45.642;13.806;2022-10-23T08:11:05;21.83;;;13.50;;
36443;SDS011;24692;45.642;13.806;2022-10-23T08:13:31;23.90;;;12.70;;
36443;SDS011;24692;45.642;13.806;2022-10-23T08:15:57;29.43;;;13.53;;
36443;SDS011;24692;45.642;13.806;2022-10-23T08:18:23;27.00;;;13.60;;
36443;SDS011;24692;45.642;13.806;2022-10-23T08:20:49;24.93;;;14.13;;
36443;SDS011;24692;45.642;13.806;2022-10-23T08:23:16;25.67;;;14.03;;
36443;SDS011;24692;45.642;13.806;2022-10-23T08:25:43;21.13;;;12.93;;
36443;SDS011;24692;45.642;13.806;2022-10-23T08:28:09;26.63;;;13.80;;
36443;SDS011;24692;45.642;13.806;2022-10-23T08:30:35;29.13;;;13.32;;
36443;SDS011;24692;45.642;13.806;2022-10-23T08:33:02;26.57;;;14.07;;
36443;SDS011;24692;45.642;13.806;2022-10-23T08:35:28;24.15;;;13.57;;
36443;SDS011;24692;45.642;13.806;2022-10-23T08:37:54;18.10;;;12.00;;
36443;SDS011;24692;45.642;13.806;2022-10-23T08:40:23;23.17;;;13.60;;
36443;SDS011;24692;45.642;13.806;2022-10-23T08:43:04;25.75;;;14.10;;
36443;SDS011;24692;45.642;13.806;2022-10-23T08:45:41;22.13;;;13.07;;
36443;SDS011;24692;45.642;13.806;2022-10-23T08:48:32;22.67;;;12.55;;
36443;SDS011;24692;45.642;13.806;2022-10-23T08:53:49;19.63;;;12.18;;
36443;SDS011;24692;45.642;13.806;2022-10-23T08:56:24;26.50;;;13.00;;
36443;SDS011;24692;45.642;13.806;2022-10-23T08:59:00;26.70;;;13.00;;
36443;SDS011;24692;45.642;13.806;2022-10-23T09:01:43;26.48;;;13.32;;
36443;SDS011;24692;45.642;13.806;2022-10-23T09:04:11;27.63;;;12.98;;
36443;SDS011;24692;45.642;13.806;2022-10-23T09:06:39;21.85;;;12.25;;
36443;SDS011;24692;45.642;13.806;2022-10-23T09:09:29;23.98;;;12.63;;
36443;SDS011;24692;45.642;13.806;2022-10-23T09:12:12;21.83;;;12.77;;
36443;SDS011;24692;45.642;13.806;2022-10-23T09:20:15;23.50;;;12.80;;
36443;SDS011;24692;45.642;13.806;2022-10-23T09:22:44;16.95;;;11.82;;
36443;SDS011;24692;45.642;13.806;2022-10-23T09:25:16;20.60;;;12.33;;
36443;SDS011;24692;45.642;13.806;2022-10-23T09:27:54;24.52;;;13.25;;
36443;SDS011;24692;45.642;13.806;2022-10-23T09:30:45;23.87;;;12.93;;
36443;SDS011;24692;45.642;13.806;2022-10-23T09:33:14;22.02;;;12.25;;
36443;SDS011;24692;45.642;13.806;2022-10-23T09:38:30;25.97;;;12.67;;
36443;SDS011;24692;45.642;13.806;2022-10-23T09:43:39;24.73;;;12.97;;
36443;SDS011;24692;45.642;13.806;2022-10-23T09:46:05;22.70;;;12.50;;
36443;SDS011;24692;45.642;13.806;2022-10-23T09:48:32;20.77;;;12.40;;
36443;SDS011;24692;45.642;13.806;2022-10-23T09:50:59;19.13;;;12.10;;
36443;SDS011;24692;45.642;13.806;2022-10-23T09:53:37;21.98;;;12.35;;
36443;SDS011;24692;45.642;13.806;2022-10-23T09:56:30;19.63;;;12.20;;
36443;SDS011;24692;45.642;13.806;2022-10-23T09:59:03;23.30;;;13.27;;
36443;SDS011;24692;45.642;13.806;2022-10-23T10:01:44;25.17;;;12.77;;
36443;SDS011;24692;45.642;13.806;2022-10-23T10:04:12;23.90;;;12.18;;
36443;SDS011;24692;45.642;13.806;2022-10-23T10:06:38;20.33;;;12.37;;
36443;SDS011;24692;45.642;13.806;2022-10-23T10:09:09;24.53;;;12.73;;
36443;SDS011;24692;45.642;13.806;2022-10-23T10:11:53;22.73;;;12.90;;
36443;SDS011;24692;45.642;13.806;2022-10-23T10:20:02;20.03;;;11.37;;
36443;SDS011;24692;45.642;13.806;2022-10-23T10:33:21;22.00;;;12.83;;
36443;SDS011;24692;45.642;13.806;2022-10-23T10:38:30;21.67;;;12.32;;
36443;SDS011;24692;45.642;13.806;2022-10-23T10:46:53;24.13;;;11.63;;
36443;SDS011;24692;45.642;13.806;2022-10-23T10:49:33;27.73;;;11.65;;
36443;SDS011;24692;45.642;13.806;2022-10-23T10:52:13;19.77;;;12.07;;
36443;SDS011;24692;45.642;13.806;2022-10-23T10:57:38;24.20;;;12.17;;
36443;SDS011;24692;45.642;13.806;2022-10-23T11:02:45;20.90;;;11.65;;
36443;SDS011;24692;45.642;13.806;2022-10-23T11:08:04;22.20;;;12.10;;
36443;SDS011;24692;45.642;13.806;2022-10-23T11:10:34;19.63;;;11.68;;
36443;SDS011;24692;45.642;13.806;2022-10-23T11:13:05;24.37;;;12.13;;
36443;SDS011;24692;45.642;13.806;2022-10-23T11:15:39;17.98;;;11.27;;
36443;SDS011;24692;45.642;13.806;2022-10-23T11:18:11;21.48;;;11.75;;
36443;SDS011;24692;45.642;13.806;2022-10-23T11:26:50;21.60;;;12.10;;
36443;SDS011;24692;45.642;13.806;2022-10-23T11:29:33;22.52;;;12.68;;
36443;SDS011;24692;45.642;13.806;2022-10-23T11:37:39;20.48;;;11.27;;
36443;SDS011;24692;45.642;13.806;2022-10-23T11:42:44;21.63;;;11.82;;
36443;SDS011;24692;45.642;13.806;2022-10-23T11:45:31;23.50;;;11.60;;
36443;SDS011;24692;45.642;13.806;2022-10-23T11:53:26;19.60;;;10.80;;
36443;SDS011;24692;45.642;13.806;2022-10-23T11:56:05;21.30;;;11.70;;
36443;SDS011;24692;45.642;13.806;2022-10-23T11:58:42;22.35;;;11.35;;
36443;SDS011;24692;45.642;13.806;2022-10-23T12:06:38;20.87;;;11.47;;
36443;SDS011;24692;45.642;13.806;2022-10-23T12:09:35;20.13;;;10.88;;
36443;SDS011;24692;45.642;13.806;2022-10-23T12:14:37;14.38;;;10.38;;
36443;SDS011;24692;45.642;13.806;2022-10-23T12:19:50;16.40;;;10.18;;
36443;SDS011;24692;45.642;13.806;2022-10-23T12:22:26;20.98;;;10.20;;
36443;SDS011;24692;45.642;13.806;2022-10-23T12:25:15;20.17;;;10.63;;
36443;SDS011;24692;45.642;13.806;2022-10-23T12:27:52;16.40;;;9.60;;
36443;SDS011;24692;45.642;13.806;2022-10-23T12:33:19;24.63;;;11.20;;
36443;SDS011;24692;45.642;13.806;2022-10-23T12:38:41;22.42;;;10.57;;
36443;SDS011;24692;45.642;13.806;2022-10-23T12:41:20;20.35;;;11.68;;
36443;SDS011;24692;45.642;13.806;2022-10-23T12:43:50;20.70;;;11.30;;
36443;SDS011;24692;45.642;13.806;2022-10-23T12:49:00;17.00;;;10.45;;
36443;SDS011;24692;45.642;13.806;2022-10-23T12:51:32;20.42;;;11.50;;
36443;SDS011;24692;45.642;13.806;2022-10-23T12:53:59;21.98;;;11.48;;
36443;SDS011;24692;45.642;13.806;2022-10-23T12:56:26;17.73;;;11.35;;
36443;SDS011;24692;45.642;13.806;2022-10-23T12:58:57;17.02;;;10.55;;
36443;SDS011;24692;45.642;13.806;2022-10-23T13:01:31;21.50;;;10.98;;
36443;SDS011;24692;45.642;13.806;2022-10-23T13:04:02;22.45;;;11.18;;
36443;SDS011;24692;45.642;13.806;2022-10-23T13:06:45;21.38;;;11.10;;
36443;SDS011;24692;45.642;13.806;2022-10-23T13:12:04;16.63;;;10.32;;
36443;SDS011;24692;45.642;13.806;2022-10-23T13:14:35;17.52;;;10.68;;
36443;SDS011;24692;45.642;13.806;2022-10-23T13:17:02;23.85;;;12.05;;
36443;SDS011;24692;45.642;13.806;2022-10-23T13:19:31;18.83;;;11.23;;
36443;SDS011;24692;45.642;13.806;2022-10-23T13:21:57;23.63;;;12.10;;
36443;SDS011;24692;45.642;13.806;2022-10-23T13:24:25;29.83;;;12.75;;
36443;SDS011;24692;45.642;13.806;2022-10-23T13:26:52;21.92;;;12.25;;
36443;SDS011;24692;45.642;13.806;2022-10-23T13:29:28;26.02;;;11.38;;
36443;SDS011;24692;45.642;13.806;2022-10-23T13:32:04;18.92;;;11.15;;
36443;SDS011;24692;45.642;13.806;2022-10-23T13:34:34;26.98;;;11.82;;
36443;SDS011;24692;45.642;13.806;2022-10-23T13:37:42;20.73;;;11.23;;
36443;SDS011;24692;45.642;13.806;2022-10-23T13:40:03;21.42;;;10.93;;
36443;SDS011;24692;45.642;13.806;2022-10-23T13:42:33;21.85;;;12.07;;
36443;SDS011;24692;45.642;13.806;2022-10-23T13:45:00;22.38;;;11.70;;
36443;SDS011;24692;45.642;13.806;2022-10-23T13:47:26;19.00;;;10.65;;
36443;SDS011;24692;45.642;13.806;2022-10-23T13:49:51;19.30;;;10.38;;
36443;SDS011;24692;45.642;13.806;2022-10-23T13:52:18;17.38;;;10.93;;
36443;SDS011;24692;45.642;13.806;2022-10-23T13:54:46;21.65;;;10.93;;
36443;SDS011;24692;45.642;13.806;2022-10-23T13:57:13;20.38;;;11.13;;
36443;SDS011;24692;45.642;13.806;2022-10-23T13:59:39;19.87;;;10.70;;
36443;SDS011;24692;45.642;13.806;2022-10-23T14:02:19;19.48;;;11.13;;
36443;SDS011;24692;45.642;13.806;2022-10-23T14:04:46;17.73;;;11.13;;
36443;SDS011;24692;45.642;13.806;2022-10-23T14:07:13;20.30;;;11.63;;
36443;SDS011;24692;45.642;13.806;2022-10-23T14:09:38;22.10;;;11.48;;
36443;SDS011;24692;45.642;13.806;2022-10-23T14:12:04;26.60;;;12.73;;
36443;SDS011;24692;45.642;13.806;2022-10-23T14:14:30;20.85;;;11.30;;
36443;SDS011;24692;45.642;13.806;2022-10-23T14:16:55;24.77;;;11.80;;
36443;SDS011;24692;45.642;13.806;2022-10-23T14:19:21;23.27;;;11.70;;
36443;SDS011;24692;45.642;13.806;2022-10-23T14:21:47;21.80;;;12.03;;
36443;SDS011;24692;45.642;13.806;2022-10-23T14:24:12;21.90;;;12.07;;
36443;SDS011;24692;45.642;13.806;2022-10-23T14:26:38;26.15;;;12.07;;
36443;SDS011;24692;45.642;13.806;2022-10-23T14:29:05;26.88;;;12.32;;
36443;SDS011;24692;45.642;13.806;2022-10-23T14:31:30;27.52;;;12.48;;
36443;SDS011;24692;45.642;13.806;2022-10-23T14:33:56;23.70;;;11.93;;
36443;SDS011;24692;45.642;13.806;2022-10-23T14:36:24;22.67;;;12.40;;
36443;SDS011;24692;45.642;13.806;2022-10-23T14:38:57;21.17;;;12.23;;
36443;SDS011;24692;45.642;13.806;2022-10-23T14:41:23;22.90;;;12.13;;
36443;SDS011;24692;45.642;13.806;2022-10-23T14:43:50;23.97;;;11.97;;
36443;SDS011;24692;45.642;13.806;2022-10-23T14:46:17;22.42;;;11.68;;
36443;SDS011;24692;45.642;13.806;2022-10-23T14:48:44;19.90;;;12.40;;
36443;SDS011;24692;45.642;13.806;2022-10-23T14:51:17;23.57;;;12.27;;
36443;SDS011;24692;45.642;13.806;2022-10-23T14:53:44;21.85;;;11.63;;
36443;SDS011;24692;45.642;13.806;2022-10-23T14:56:10;21.60;;;11.55;;
36443;SDS011;24692;45.642;13.806;2022-10-23T14:58:36;21.65;;;12.07;;
36443;SDS011;24692;45.642;13.806;2022-10-23T15:01:01;21.92;;;12.57;;
36443;SDS011;24692;45.642;13.806;2022-10-23T15:03:27;21.93;;;12.67;;
36443;SDS011;24692;45.642;13.806;2022-10-23T15:05:53;26.38;;;12.98;;
36443;SDS011;24692;45.642;13.806;2022-10-23T15:08:20;18.87;;;12.20;;
36443;SDS011;24692;45.642;13.806;2022-10-23T15:10:47;23.60;;;12.87;;
36443;SDS011;24692;45.642;13.806;2022-10-23T15:13:12;19.83;;;13.60;;
36443;SDS011;24692;45.642;13.806;2022-10-23T15:15:38;20.17;;;12.80;;
36443;SDS011;24692;45.642;13.806;2022-10-23T15:18:04;19.17;;;12.53;;
36443;SDS011;24692;45.642;13.806;2022-10-23T15:20:30;20.13;;;12.15;;
36443;SDS011;24692;45.642;13.806;2022-10-23T15:22:56;19.87;;;12.33;;
36443;SDS011;24692;45.642;13.806;2022-10-23T15:25:21;16.45;;;12.05;;
36443;SDS011;24692;45.642;13.806;2022-10-23T15:27:47;22.63;;;12.55;;
36443;SDS011;24692;45.642;13.806;2022-10-23T15:30:13;24.58;;;12.48;;
36443;SDS011;24692;45.642;13.806;2022-10-23T15:32:39;19.63;;;12.70;;
36443;SDS011;24692;45.642;13.806;2022-10-23T15:35:05;19.35;;;12.27;;
36443;SDS011;24692;45.642;13.806;2022-10-23T15:37:31;20.83;;;13.15;;
36443;SDS011;24692;45.642;13.806;2022-10-23T15:39:57;23.80;;;12.88;;
36443;SDS011;24692;45.642;13.806;2022-10-23T15:42:23;23.80;;;13.50;;
36443;SDS011;24692;45.642;13.806;2022-10-23T15:44:48;19.93;;;13.17;;
36443;SDS011;24692;45.642;13.806;2022-10-23T15:47:14;21.65;;;13.63;;
36443;SDS011;24692;45.642;13.806;2022-10-23T15:49:40;25.17;;;13.30;;
36443;SDS011;24692;45.642;13.806;2022-10-23T15:52:06;18.90;;;12.80;;
36443;SDS011;24692;45.642;13.806;2022-10-23T15:54:33;21.23;;;12.73;;
36443;SDS011;24692;45.642;13.806;2022-10-23T15:56:59;22.23;;;13.60;;
36443;SDS011;24692;45.642;13.806;2022-10-23T15:59:27;20.73;;;14.07;;
36443;SDS011;24692;45.642;13.806;2022-10-23T16:01:54;25.77;;;13.50;;
36443;SDS011;24692;45.642;13.806;2022-10-23T16:04:20;20.98;;;13.98;;
36443;SDS011;24692;45.642;13.806;2022-10-23T16:06:46;22.10;;;13.97;;
36443;SDS011;24692;45.642;13.806;2022-10-23T16:09:13;24.50;;;13.85;;
36443;SDS011;24692;45.642;13.806;2022-10-23T16:11:40;23.27;;;14.23;;
36443;SDS011;24692;45.642;13.806;2022-10-23T16:14:13;25.27;;;14.17;;
36443;SDS011;24692;45.642;13.806;2022-10-23T16:16:40;24.85;;;13.80;;
36443;SDS011;24692;45.642;13.806;2022-10-23T16:19:06;20.37;;;13.90;;
36443;SDS011;24692;45.642;13.806;2022-10-23T16:21:34;24.30;;;13.83;;
36443;SDS011;24692;45.642;13.806;2022-10-23T16:24:01;23.53;;;14.43;;